Time;durP1;ratioP1;P1;durP2;ratioP2;P2;SDS_P1;SDS_P2;PMS_P1;PMS_P2;Temp;Humidity;BMP_temperature;BMP_pressure;BME280_temperature;BME280_humidity;BME280_pressure;Samples;Min_cycle;Max_cycle;Signal;HPM_P1;HPM_P2
2023/03/06 00:00:09;;;;;;;2.25;2.03;;;7.90;77.30;;;;;;4906119;29;20028;-82
2023/03/06 00:02:37;;;;;;;2.17;1.98;;;7.90;77.40;;;;;;4903294;29;20047;-83
2023/03/06 00:05:03;;;;;;;2.03;1.70;;;7.90;77.40;;;;;;4917609;29;20106;-82
2023/03/06 00:07:29;;;;;;;2.30;2.10;;;7.80;77.30;;;;;;4916538;29;20040;-82
2023/03/06 00:09:55;;;;;;;2.28;2.03;;;7.80;77.30;;;;;;4900720;29;20035;-81
2023/03/06 00:12:20;;;;;;;2.05;1.80;;;7.80;77.40;;;;;;4917420;29;20112;-82
2023/03/06 00:14:46;;;;;;;2.60;2.08;;;7.80;77.30;;;;;;4917473;29;20027;-82
2023/03/06 00:17:12;;;;;;;2.40;1.98;;;7.80;77.40;;;;;;4932875;29;20135;-81
2023/03/06 00:19:38;;;;;;;2.67;2.10;;;7.80;77.40;;;;;;4900629;29;20032;-83
2023/03/06 00:22:03;;;;;;;2.53;2.00;;;7.70;77.40;;;;;;4900916;29;20046;-81
2023/03/06 00:24:29;;;;;;;2.88;1.90;;;7.70;77.40;;;;;;4919921;29;20031;-82
2023/03/06 00:26:55;;;;;;;2.10;1.90;;;7.70;77.40;;;;;;4920260;29;20473;-82
2023/03/06 00:29:21;;;;;;;2.22;1.95;;;7.70;77.40;;;;;;4904422;29;20032;-82
2023/03/06 00:31:46;;;;;;;2.25;1.90;;;7.70;77.40;;;;;;4904473;29;20404;-81
2023/03/06 00:34:13;;;;;;;2.88;2.28;;;7.70;77.40;;;;;;4904458;29;20087;-81
2023/03/06 00:36:40;;;;;;;3.22;2.30;;;7.60;77.40;;;;;;4904950;29;20024;-81
2023/03/06 00:39:08;;;;;;;2.50;2.03;;;7.60;77.40;;;;;;4919757;29;20032;-81
2023/03/06 00:41:34;;;;;;;2.47;2.00;;;7.60;77.40;;;;;;4904173;29;20044;-82
2023/03/06 00:44:00;;;;;;;2.00;1.88;;;7.60;77.40;;;;;;4919973;29;20080;-81
2023/03/06 00:46:26;;;;;;;2.40;1.98;;;7.60;77.50;;;;;;4919935;29;20043;-82
2023/03/06 00:48:51;;;;;;;3.10;1.98;;;7.60;77.50;;;;;;4888675;29;20024;-81
2023/03/06 00:51:20;;;;;;;2.78;2.15;;;7.50;77.40;;;;;;4903836;29;20036;-81
2023/03/06 00:53:47;;;;;;;2.65;2.10;;;7.50;77.40;;;;;;4904318;29;20028;-81
2023/03/06 00:56:14;;;;;;;2.20;2.00;;;7.50;77.40;;;;;;4919667;29;20047;-81
2023/03/06 00:58:41;;;;;;;2.85;2.22;;;7.50;77.50;;;;;;4903872;29;20039;-81
2023/03/06 01:01:06;;;;;;;3.05;2.33;;;7.50;77.50;;;;;;4919945;29;20139;-81
2023/03/06 01:03:32;;;;;;;3.00;2.20;;;7.40;77.40;;;;;;4904258;29;20491;-83
2023/03/06 01:05:58;;;;;;;2.53;2.10;;;7.40;77.40;;;;;;4903614;29;20071;-81
2023/03/06 01:08:24;;;;;;;2.78;2.45;;;7.40;77.40;;;;;;4904152;29;20056;-81
2023/03/06 01:10:51;;;;;;;2.35;2.15;;;7.40;77.40;;;;;;4919656;29;20461;-81
2023/03/06 01:13:17;;;;;;;2.92;2.35;;;7.40;77.50;;;;;;4904136;29;20389;-81
2023/03/06 01:15:42;;;;;;;3.45;2.40;;;7.30;77.40;;;;;;4888248;29;20032;-81
2023/03/06 01:18:08;;;;;;;2.50;2.30;;;7.30;77.40;;;;;;4903849;29;20469;-81
2023/03/06 01:20:35;;;;;;;2.92;2.28;;;7.30;77.50;;;;;;4903185;29;20227;-81
2023/03/06 01:23:01;;;;;;;3.10;2.40;;;7.30;77.50;;;;;;4935505;29;20119;-82
2023/03/06 01:25:27;;;;;;;2.83;2.20;;;7.30;77.60;;;;;;4904028;29;20435;-81
2023/03/06 01:27:53;;;;;;;3.80;2.30;;;7.30;77.60;;;;;;4903793;29;20100;-81
2023/03/06 01:30:19;;;;;;;3.35;2.50;;;7.30;77.50;;;;;;4919348;29;20481;-81
2023/03/06 01:32:46;;;;;;;2.40;2.20;;;7.20;77.50;;;;;;4903304;29;20100;-82
2023/03/06 01:35:14;;;;;;;2.50;2.08;;;7.20;77.50;;;;;;4903017;29;20043;-84
2023/03/06 01:37:40;;;;;;;2.83;2.40;;;7.20;77.50;;;;;;4887972;29;20091;-81
2023/03/06 01:40:07;;;;;;;2.92;2.10;;;7.10;77.50;;;;;;4918863;29;20032;-85
2023/03/06 01:42:33;;;;;;;3.72;2.50;;;7.20;77.50;;;;;;4919604;29;20050;-81
2023/03/06 01:45:22;;;;;;;2.72;2.17;;;7.10;78.10;;;;;;4887072;29;20032;-86
2023/03/06 01:47:48;;;;;;;2.92;2.50;;;7.10;77.50;;;;;;4887766;29;20536;-80
2023/03/06 01:50:14;;;;;;;3.03;2.20;;;7.10;77.50;;;;;;4903787;29;20032;-81
2023/03/06 01:52:50;;;;;;;2.90;2.35;;;7.10;77.50;;;;;;4903249;29;20381;-81
2023/03/06 01:55:23;;;;;;;2.80;2.30;;;7.10;77.50;;;;;;4919374;29;20043;-81
2023/03/06 01:57:53;;;;;;;4.60;2.38;;;7.00;77.50;;;;;;4918673;29;20028;-81
2023/03/06 02:00:25;;;;;;;3.35;2.63;;;7.10;77.60;;;;;;4934470;29;20028;-81
2023/03/06 02:03:13;;;;;;;3.15;2.47;;;7.00;77.60;;;;;;4903076;29;20032;-82
2023/03/06 02:05:41;;;;;;;4.15;2.83;;;7.00;77.50;;;;;;4919064;29;20031;-81
2023/03/06 02:08:10;;;;;;;4.50;2.80;;;7.00;77.50;;;;;;4887882;29;20625;-81
2023/03/06 02:10:36;;;;;;;3.67;2.70;;;7.00;77.60;;;;;;4902761;29;20036;-82
2023/03/06 02:13:02;;;;;;;3.22;2.80;;;7.00;77.50;;;;;;4903534;29;20028;-81
2023/03/06 02:15:29;;;;;;;4.30;3.08;;;7.00;77.60;;;;;;4919013;29;20190;-80
2023/03/06 02:17:55;;;;;;;4.15;3.00;;;6.90;77.50;;;;;;4902801;29;20072;-81
2023/03/06 02:20:44;;;;;;;3.92;3.20;;;6.90;77.50;;;;;;4918217;29;20552;-81
2023/03/06 02:23:25;;;;;;;6.15;3.95;;;6.90;77.60;;;;;;4902511;29;20032;-81
2023/03/06 02:25:52;;;;;;;4.82;3.42;;;6.90;77.50;;;;;;4934280;29;20169;-81
2023/03/06 02:28:21;;;;;;;4.72;3.70;;;6.90;77.50;;;;;;4924797;29;20024;-84
2023/03/06 02:30:49;;;;;;;5.60;3.85;;;6.80;77.50;;;;;;4909941;29;20039;-83
2023/03/06 02:33:21;;;;;;;5.68;4.22;;;6.80;77.50;;;;;;4907012;29;20123;-82
2023/03/06 02:35:54;;;;;;;5.43;4.20;;;6.80;77.60;;;;;;4902691;29;20119;-82
2023/03/06 02:38:23;;;;;;;5.45;4.13;;;6.80;77.60;;;;;;4933424;29;20039;-82
2023/03/06 02:40:51;;;;;;;5.00;3.97;;;6.80;77.50;;;;;;4886968;29;20051;-81
2023/03/06 02:43:24;;;;;;;5.72;4.38;;;6.80;77.60;;;;;;4918253;29;20031;-84
2023/03/06 02:45:50;;;;;;;6.05;4.65;;;6.80;77.60;;;;;;4901958;29;20035;-84
2023/03/06 02:48:17;;;;;;;6.28;4.85;;;6.70;77.50;;;;;;4901383;29;20036;-81
2023/03/06 02:50:46;;;;;;;7.03;4.90;;;6.70;77.50;;;;;;4917285;29;20059;-81
2023/03/06 02:53:14;;;;;;;5.97;4.60;;;6.70;77.50;;;;;;4901907;29;20040;-83
2023/03/06 02:55:39;;;;;;;6.07;4.82;;;6.70;77.50;;;;;;4901773;29;20032;-81
2023/03/06 02:58:06;;;;;;;6.43;4.97;;;6.70;77.50;;;;;;4917276;29;20362;-85
2023/03/06 03:00:33;;;;;;;7.45;5.15;;;6.70;77.60;;;;;;4902151;29;20135;-81
2023/03/06 03:03:01;;;;;;;7.07;4.78;;;6.70;77.60;;;;;;4901567;29;20457;-81
2023/03/06 03:05:27;;;;;;;7.35;5.30;;;6.70;77.60;;;;;;4932687;29;20085;-81
2023/03/06 03:07:58;;;;;;;6.43;5.03;;;6.60;77.60;;;;;;4918292;29;20500;-81
2023/03/06 03:10:26;;;;;;;6.90;5.53;;;6.60;77.60;;;;;;4901746;29;20536;-82
2023/03/06 03:12:52;;;;;;;6.43;5.00;;;6.60;77.60;;;;;;4918532;29;20032;-81
2023/03/06 03:15:18;;;;;;;6.95;5.45;;;6.60;77.60;;;;;;4901322;29;20048;-81
2023/03/06 03:17:44;;;;;;;6.75;5.55;;;6.60;77.60;;;;;;4917200;29;20111;-81
2023/03/06 03:20:13;;;;;;;7.13;5.50;;;6.60;77.60;;;;;;4901356;29;20112;-81
2023/03/06 03:22:39;;;;;;;7.03;5.43;;;6.60;77.60;;;;;;4901306;29;20047;-81
2023/03/06 03:25:06;;;;;;;7.05;5.78;;;6.60;77.60;;;;;;4916599;29;20429;-81
2023/03/06 03:27:32;;;;;;;6.82;5.55;;;6.60;77.70;;;;;;4901176;29;20087;-82
2023/03/06 03:29:59;;;;;;;7.75;5.97;;;6.50;77.60;;;;;;4885606;29;20032;-81
2023/03/06 03:32:25;;;;;;;7.82;6.05;;;6.60;77.70;;;;;;4916868;29;20036;-81
2023/03/06 03:34:53;;;;;;;7.47;5.65;;;6.50;77.60;;;;;;4916742;29;20038;-81
2023/03/06 03:37:19;;;;;;;7.25;5.55;;;6.50;77.60;;;;;;4916509;29;20043;-81
2023/03/06 03:39:45;;;;;;;7.82;5.90;;;6.50;77.60;;;;;;4900670;29;20032;-82
2023/03/06 03:42:11;;;;;;;7.45;5.43;;;6.50;77.60;;;;;;4917292;29;20131;-81
2023/03/06 03:44:37;;;;;;;7.95;6.03;;;6.50;77.60;;;;;;4916615;29;20025;-82
2023/03/06 03:47:03;;;;;;;8.15;6.28;;;6.50;77.60;;;;;;4916480;29;20044;-81
2023/03/06 03:49:29;;;;;;;6.82;5.65;;;6.50;77.60;;;;;;4916590;29;20024;-84
2023/03/06 03:51:57;;;;;;;7.32;6.15;;;6.50;77.60;;;;;;4884916;29;20043;-81
2023/03/06 03:54:25;;;;;;;7.68;5.70;;;6.50;77.60;;;;;;4916136;29;20047;-81
2023/03/06 03:56:52;;;;;;;8.43;5.97;;;6.50;77.70;;;;;;4900315;29;20069;-84
2023/03/06 03:59:23;;;;;;;7.03;5.60;;;6.50;77.70;;;;;;4900804;29;20032;-82
2023/03/06 04:02:12;;;;;;;7.45;5.65;;;6.40;77.60;;;;;;4894077;29;20047;-81
2023/03/06 04:04:48;;;;;;;6.80;5.22;;;6.50;77.70;;;;;;4902179;29;20461;-81
2023/03/06 04:07:14;;;;;;;7.57;5.95;;;6.40;77.70;;;;;;4916111;29;20067;-84
2023/03/06 04:09:40;;;;;;;6.90;5.65;;;6.40;77.70;;;;;;4916064;29;20043;-81
2023/03/06 04:12:07;;;;;;;6.93;5.60;;;6.40;77.60;;;;;;4884977;29;20053;-85
2023/03/06 04:14:35;;;;;;;7.95;5.78;;;6.40;77.70;;;;;;4916944;29;20058;-82
2023/03/06 04:17:02;;;;;;;7.40;5.80;;;6.40;77.90;;;;;;4916452;29;20576;-83
2023/03/06 04:19:27;;;;;;;7.10;5.32;;;6.40;77.70;;;;;;4900941;29;20032;-81
2023/03/06 04:21:53;;;;;;;7.05;5.80;;;6.40;77.70;;;;;;4916310;29;20582;-81
2023/03/06 04:24:20;;;;;;;7.93;6.22;;;6.40;77.70;;;;;;4916213;29;20043;-84
2023/03/06 04:26:46;;;;;;;7.43;5.60;;;6.40;77.70;;;;;;4916496;29;20039;-81
2023/03/06 04:29:12;;;;;;;6.72;5.45;;;6.40;77.70;;;;;;4900506;29;20043;-84
2023/03/06 04:31:38;;;;;;;7.40;5.60;;;6.40;77.70;;;;;;4900818;29;20388;-82
2023/03/06 04:34:04;;;;;;;7.13;5.50;;;6.30;77.70;;;;;;4882878;29;20059;-82
2023/03/06 04:36:32;;;;;;;7.72;5.75;;;6.40;77.70;;;;;;4915954;29;20056;-81
2023/03/06 04:39:03;;;;;;;7.28;5.57;;;6.30;77.70;;;;;;4917128;29;20039;-82
2023/03/06 04:41:30;;;;;;;6.93;5.50;;;6.40;77.70;;;;;;4916280;29;20393;-81
2023/03/06 04:43:56;;;;;;;6.72;5.32;;;6.40;77.70;;;;;;4901223;29;20035;-84
2023/03/06 04:46:22;;;;;;;8.00;5.82;;;6.30;77.70;;;;;;4900848;29;20046;-81
2023/03/06 04:48:48;;;;;;;7.18;5.60;;;6.40;77.70;;;;;;4900745;29;20036;-82
2023/03/06 04:51:14;;;;;;;6.63;5.65;;;6.30;77.70;;;;;;4900769;29;20047;-81
2023/03/06 04:53:40;;;;;;;7.00;5.38;;;6.30;77.70;;;;;;4916908;29;20039;-81
2023/03/06 04:56:06;;;;;;;6.72;5.35;;;6.30;77.70;;;;;;4916536;29;20032;-82
2023/03/06 04:58:32;;;;;;;8.02;5.60;;;6.30;77.70;;;;;;4900510;29;20040;-81
2023/03/06 05:00:57;;;;;;;8.32;6.07;;;6.30;77.70;;;;;;4900426;29;20079;-81
2023/03/06 05:03:23;;;;;;;6.63;5.10;;;6.30;77.70;;;;;;4900730;29;20032;-81
2023/03/06 05:05:49;;;;;;;6.63;5.43;;;6.30;77.70;;;;;;4931846;29;20032;-82
2023/03/06 05:08:16;;;;;;;6.85;5.47;;;6.30;77.70;;;;;;4901031;29;20056;-82
2023/03/06 05:10:43;;;;;;;7.18;5.18;;;6.30;77.70;;;;;;4903810;29;20047;-82
2023/03/06 05:13:09;;;;;;;6.95;5.15;;;6.30;77.70;;;;;;4903493;29;20067;-82
2023/03/06 05:15:35;;;;;;;6.50;4.82;;;6.30;77.70;;;;;;4935404;29;20044;-81
2023/03/06 05:18:01;;;;;;;6.50;5.25;;;6.30;77.70;;;;;;4919102;29;20028;-81
2023/03/06 05:20:30;;;;;;;7.40;5.63;;;6.30;77.70;;;;;;4919597;29;20389;-82
2023/03/06 05:22:55;;;;;;;7.75;5.93;;;6.30;77.70;;;;;;4918771;29;20381;-82
2023/03/06 05:25:21;;;;;;;7.35;5.43;;;6.30;77.70;;;;;;4903319;29;20036;-82
2023/03/06 05:27:47;;;;;;;6.80;5.32;;;6.30;78.40;;;;;;4919020;29;20095;-81
2023/03/06 05:30:14;;;;;;;6.85;5.07;;;6.30;77.80;;;;;;4903580;29;20028;-81
2023/03/06 05:32:39;;;;;;;7.18;5.35;;;6.20;78.30;;;;;;4918820;29;20065;-81
2023/03/06 05:35:06;;;;;;;6.82;5.43;;;6.20;77.70;;;;;;4919211;29;20067;-82
2023/03/06 05:37:32;;;;;;;7.07;5.30;;;6.20;77.70;;;;;;4920220;29;20119;-81
2023/03/06 05:39:59;;;;;;;7.38;5.65;;;6.30;77.80;;;;;;4935041;29;20455;-81
2023/03/06 05:42:26;;;;;;;6.75;5.13;;;6.30;77.80;;;;;;4903108;29;20063;-82
2023/03/06 05:44:51;;;;;;;7.75;5.75;;;6.30;77.80;;;;;;4902570;29;20040;-84
2023/03/06 05:47:17;;;;;;;7.00;5.00;;;6.20;77.80;;;;;;4934658;29;20040;-81
2023/03/06 05:49:43;;;;;;;7.05;5.00;;;6.30;77.80;;;;;;4918888;29;20029;-81
2023/03/06 05:52:12;;;;;;;7.47;5.43;;;6.20;78.40;;;;;;4918573;29;20397;-81
2023/03/06 05:54:37;;;;;;;7.03;5.28;;;6.30;77.80;;;;;;4903062;29;20034;-82
2023/03/06 05:57:04;;;;;;;7.35;5.63;;;6.20;77.70;;;;;;4918922;29;20438;-81
2023/03/06 05:59:31;;;;;;;7.50;5.32;;;6.20;77.70;;;;;;4918451;29;20029;-81
2023/03/06 06:01:57;;;;;;;6.90;5.22;;;6.30;77.80;;;;;;4903096;29;20465;-82
2023/03/06 06:04:25;;;;;;;7.65;5.35;;;6.20;77.70;;;;;;4887584;29;20020;-82
2023/03/06 06:06:53;;;;;;;6.00;5.18;;;6.20;77.70;;;;;;4919301;29;20084;-84
2023/03/06 06:09:21;;;;;;;6.78;5.05;;;6.20;77.70;;;;;;4918302;29;20123;-81
2023/03/06 06:11:50;;;;;;;7.38;5.18;;;6.20;77.70;;;;;;4917902;29;20044;-82
2023/03/06 06:14:16;;;;;;;6.70;5.10;;;6.30;77.80;;;;;;4902420;29;20036;-81
2023/03/06 06:16:43;;;;;;;6.85;5.05;;;6.30;77.80;;;;;;4918093;29;20039;-81
2023/03/06 06:19:09;;;;;;;7.60;5.25;;;6.20;77.70;;;;;;4902180;29;20040;-82
2023/03/06 06:21:35;;;;;;;7.32;4.93;;;6.30;77.80;;;;;;4917804;29;20436;-83
2023/03/06 06:24:00;;;;;;;7.60;5.50;;;6.30;77.80;;;;;;4902463;29;20461;-83
2023/03/06 06:26:26;;;;;;;7.15;5.25;;;6.20;77.70;;;;;;4901872;29;20410;-81
2023/03/06 06:28:52;;;;;;;7.28;4.70;;;6.20;77.70;;;;;;4917762;29;20040;-82
2023/03/06 06:31:17;;;;;;;7.05;5.00;;;6.30;77.80;;;;;;4917602;29;20175;-80
2023/03/06 06:33:44;;;;;;;6.78;4.93;;;6.30;77.80;;;;;;4901877;29;20115;-80
2023/03/06 06:36:18;;;;;;;6.45;4.95;;;6.20;77.70;;;;;;4902994;29;20040;-84
2023/03/06 06:38:44;;;;;;;7.63;4.93;;;6.30;77.80;;;;;;4934978;29;20039;-82
2023/03/06 06:41:11;;;;;;;6.55;4.97;;;6.20;77.70;;;;;;4902304;29;20374;-81
2023/03/06 06:43:37;;;;;;;6.63;4.75;;;6.20;77.70;;;;;;4933726;29;20503;-82
2023/03/06 06:46:03;;;;;;;5.38;4.18;;;6.20;77.70;;;;;;4902479;29;20062;-82
2023/03/06 06:48:29;;;;;;;5.80;4.45;;;6.30;77.80;;;;;;4917632;29;20036;-81
2023/03/06 06:50:56;;;;;;;6.10;4.43;;;6.20;77.80;;;;;;4902027;29;20092;-82
2023/03/06 06:53:22;;;;;;;6.15;4.25;;;6.20;77.80;;;;;;4902276;29;20099;-81
2023/03/06 06:55:48;;;;;;;6.20;4.32;;;6.20;77.80;;;;;;4918551;29;20028;-84
2023/03/06 06:58:14;;;;;;;6.25;4.78;;;6.20;77.80;;;;;;4902983;29;20032;-84
2023/03/06 07:00:39;;;;;;;6.10;4.50;;;6.20;77.70;;;;;;4918161;29;20087;-83
2023/03/06 07:03:06;;;;;;;6.18;4.50;;;6.30;77.80;;;;;;4902430;29;20080;-82
2023/03/06 07:05:32;;;;;;;6.93;4.95;;;6.30;77.80;;;;;;4918501;29;20043;-84
2023/03/06 07:07:58;;;;;;;5.93;4.40;;;6.30;77.80;;;;;;4918111;29;20059;-85
2023/03/06 07:10:24;;;;;;;6.40;4.32;;;6.30;77.80;;;;;;4902691;29;20127;-82
2023/03/06 07:12:50;;;;;;;6.05;4.40;;;6.30;77.80;;;;;;4917736;29;20044;-83
2023/03/06 07:15:17;;;;;;;6.13;4.50;;;6.30;77.80;;;;;;4917348;29;20032;-83
2023/03/06 07:17:43;;;;;;;5.90;4.15;;;6.30;77.80;;;;;;4917422;29;20143;-83
2023/03/06 07:20:09;;;;;;;5.18;4.00;;;6.30;77.80;;;;;;4901696;29;20545;-86
2023/03/06 07:22:35;;;;;;;5.28;4.05;;;6.30;77.80;;;;;;4933137;29;20036;-85
2023/03/06 07:25:03;;;;;;;5.80;4.30;;;6.30;77.80;;;;;;4901318;29;20028;-84
2023/03/06 07:27:28;;;;;;;5.30;3.90;;;6.30;77.80;;;;;;4902073;29;20036;-83
2023/03/06 07:29:54;;;;;;;5.55;4.53;;;6.30;77.80;;;;;;4917407;29;20051;-86
2023/03/06 07:32:20;;;;;;;5.40;4.55;;;6.30;77.80;;;;;;4901128;29;20497;-85
2023/03/06 07:34:46;;;;;;;6.75;5.13;;;6.30;77.80;;;;;;4932858;29;20067;-86
2023/03/06 07:37:12;;;;;;;5.80;4.13;;;6.30;77.80;;;;;;4932951;29;20491;-86
2023/03/06 07:39:38;;;;;;;6.07;4.82;;;6.30;77.80;;;;;;4901381;29;20044;-86
2023/03/06 07:42:06;;;;;;;5.70;4.35;;;6.30;77.80;;;;;;4917275;29;20044;-86
2023/03/06 07:44:35;;;;;;;5.70;4.50;;;6.30;77.80;;;;;;4901342;29;20127;-85
2023/03/06 07:47:01;;;;;;;5.25;3.92;;;6.30;77.80;;;;;;4902144;29;20039;-84
2023/03/06 07:49:26;;;;;;;4.78;3.83;;;6.30;77.80;;;;;;4901298;29;20196;-85
2023/03/06 07:51:52;;;;;;;6.30;4.70;;;6.30;77.90;;;;;;4902084;29;20059;-86
2023/03/06 07:54:18;;;;;;;6.10;4.45;;;6.30;77.80;;;;;;4917180;29;20377;-86
2023/03/06 07:56:44;;;;;;;6.22;4.43;;;6.30;77.80;;;;;;4933240;29;20031;-83
2023/03/06 07:59:10;;;;;;;4.78;3.72;;;6.30;77.90;;;;;;4917463;29;20032;-85
2023/03/06 08:01:38;;;;;;;5.05;3.83;;;6.40;77.90;;;;;;4901404;29;20646;-83
2023/03/06 08:04:04;;;;;;;5.57;3.97;;;6.40;77.80;;;;;;4901452;29;20032;-82
2023/03/06 08:06:31;;;;;;;5.05;4.03;;;6.40;77.80;;;;;;4917296;29;20070;-83
2023/03/06 08:08:57;;;;;;;4.90;3.63;;;6.40;77.90;;;;;;4917517;29;20032;-84
2023/03/06 08:11:26;;;;;;;4.90;3.78;;;6.40;77.80;;;;;;4917587;29;20123;-85
2023/03/06 08:13:52;;;;;;;4.75;3.70;;;6.40;77.80;;;;;;4885598;29;20032;-85
2023/03/06 08:16:20;;;;;;;5.10;3.80;;;6.40;77.80;;;;;;4901573;29;20043;-84
2023/03/06 08:18:46;;;;;;;4.57;3.40;;;6.50;77.90;;;;;;4901646;29;20473;-84
2023/03/06 08:21:14;;;;;;;4.70;3.60;;;6.40;77.80;;;;;;4901459;29;20043;-84
2023/03/06 08:23:40;;;;;;;4.90;3.47;;;6.50;77.80;;;;;;4900947;29;20043;-85
2023/03/06 08:26:14;;;;;;;4.35;3.50;;;6.50;77.80;;;;;;4917638;29;20168;-86
2023/03/06 08:28:40;;;;;;;3.67;2.95;;;6.50;77.80;;;;;;4901054;29;20035;-85
2023/03/06 08:31:24;;;;;;;3.85;3.22;;;6.50;77.80;;;;;;4917825;29;20036;-84
2023/03/06 08:33:50;;;;;;;4.22;3.20;;;6.50;77.90;;;;;;4933035;29;20056;-86
2023/03/06 08:36:16;;;;;;;3.83;3.08;;;6.50;77.80;;;;;;4901544;29;20385;-84
2023/03/06 08:38:41;;;;;;;4.03;2.97;;;6.50;77.80;;;;;;4900999;29;20048;-84
2023/03/06 08:41:07;;;;;;;3.75;3.13;;;6.50;77.80;;;;;;4916647;29;20043;-84
2023/03/06 08:43:34;;;;;;;3.72;2.80;;;6.50;77.80;;;;;;4933104;29;20101;-85
2023/03/06 08:46:00;;;;;;;3.60;2.90;;;6.60;77.90;;;;;;4920484;29;20031;-85
2023/03/06 08:48:26;;;;;;;3.78;3.05;;;6.60;77.90;;;;;;4889324;29;20036;-85
2023/03/06 08:50:52;;;;;;;3.53;2.65;;;6.60;77.90;;;;;;4920371;29;20501;-85
2023/03/06 08:53:18;;;;;;;3.40;2.63;;;6.60;77.90;;;;;;4904507;29;20028;-84
2023/03/06 08:55:44;;;;;;;3.53;2.70;;;6.60;77.90;;;;;;4904041;29;20120;-84
2023/03/06 08:58:10;;;;;;;3.70;2.75;;;6.60;78.00;;;;;;4904501;29;20434;-85
2023/03/06 09:00:36;;;;;;;3.40;2.40;;;6.70;77.90;;;;;;4920233;29;20062;-84
2023/03/06 09:03:03;;;;;;;3.50;2.45;;;6.70;77.90;;;;;;4920156;29;20082;-84
2023/03/06 09:05:28;;;;;;;2.65;2.40;;;6.70;77.90;;;;;;4935870;29;20120;-84
2023/03/06 09:07:54;;;;;;;2.40;2.20;;;6.70;77.90;;;;;;4920316;29;20067;-84
2023/03/06 09:10:22;;;;;;;2.40;2.20;;;6.70;78.50;;;;;;4935971;29;20020;-83
2023/03/06 09:12:48;;;;;;;2.97;2.30;;;6.80;77.90;;;;;;4903882;29;20040;-83
2023/03/06 09:15:14;;;;;;;2.38;2.00;;;6.80;77.80;;;;;;4919701;29;20025;-83
2023/03/06 09:17:40;;;;;;;2.35;2.13;;;6.80;77.80;;;;;;4903733;29;20076;-82
2023/03/06 09:20:07;;;;;;;2.40;2.17;;;6.80;77.80;;;;;;4903967;29;20035;-83
2023/03/06 09:22:33;;;;;;;3.13;2.42;;;6.90;77.80;;;;;;4903789;29;20043;-83
2023/03/06 09:24:59;;;;;;;3.33;2.38;;;6.90;77.80;;;;;;4903912;29;20028;-84
2023/03/06 09:27:27;;;;;;;2.55;2.05;;;6.90;77.80;;;;;;4919994;29;20454;-82
2023/03/06 09:29:53;;;;;;;2.35;1.92;;;7.00;77.80;;;;;;4903372;29;20039;-80
2023/03/06 09:32:20;;;;;;;2.10;1.90;;;7.00;77.80;;;;;;4919375;29;20043;-82
2023/03/06 09:34:46;;;;;;;2.08;1.70;;;7.00;77.80;;;;;;4888369;29;20131;-82
2023/03/06 09:37:12;;;;;;;1.88;1.67;;;7.00;77.70;;;;;;4935987;29;20105;-82
2023/03/06 09:39:37;;;;;;;1.90;1.70;;;7.00;77.70;;;;;;4935747;29;20369;-82
2023/03/06 09:42:07;;;;;;;2.20;1.77;;;7.10;77.70;;;;;;4935936;29;20064;-82
2023/03/06 09:44:35;;;;;;;1.70;1.60;;;7.10;77.60;;;;;;4903479;29;20114;-82
2023/03/06 09:47:33;;;;;;;1.80;1.70;;;7.10;77.60;;;;;;4903207;29;20496;-81
2023/03/06 09:50:34;;;;;;;1.65;1.55;;;7.20;77.60;;;;;;4920365;29;20064;-82
2023/03/06 09:53:27;;;;;;;2.03;1.80;;;7.20;77.50;;;;;;4934990;29;20052;-82
2023/03/06 09:56:18;;;;;;;1.75;1.60;;;7.30;77.50;;;;;;4919018;29;20032;-81
2023/03/06 09:58:58;;;;;;;1.60;1.50;;;7.30;77.40;;;;;;4902820;29;20075;-81
2023/03/06 10:01:28;;;;;;;1.70;1.60;;;7.30;77.40;;;;;;4934990;29;20043;-81
2023/03/06 10:04:32;;;;;;;1.70;1.60;;;7.40;77.30;;;;;;4903185;29;20039;-81
2023/03/06 10:07:10;;;;;;;1.63;1.52;;;7.40;77.30;;;;;;4882391;29;20051;-81
2023/03/06 10:10:03;;;;;;;2.20;1.70;;;7.40;77.20;;;;;;4903152;29;20039;-81
2023/03/06 10:12:37;;;;;;;1.50;1.40;;;7.50;77.30;;;;;;4918839;29;20091;-82
2023/03/06 10:15:21;;;;;;;1.70;1.60;;;7.50;77.30;;;;;;4935045;29;20028;-81
2023/03/06 10:17:47;;;;;;;1.50;1.40;;;7.60;77.30;;;;;;4887120;29;20071;-80
2023/03/06 10:20:21;;;;;;;1.50;1.40;;;7.60;77.30;;;;;;4902787;29;20028;-83
2023/03/06 10:23:23;;;;;;;1.40;1.30;;;7.60;77.30;;;;;;4934936;29;20050;-82
2023/03/06 10:26:01;;;;;;;1.60;1.50;;;7.70;77.40;;;;;;4934879;29;20051;-81
2023/03/06 10:28:27;;;;;;;1.40;1.30;;;7.70;77.30;;;;;;4919652;29;20024;-82
2023/03/06 10:31:15;;;;;;;1.40;1.30;;;7.70;77.20;;;;;;4933628;29;20100;-82
2023/03/06 10:33:57;;;;;;;1.40;1.30;;;7.80;77.30;;;;;;4933895;29;20561;-81
2023/03/06 10:36:27;;;;;;;1.60;1.50;;;7.90;77.40;;;;;;4902975;29;20450;-81
2023/03/06 10:38:55;;;;;;;1.50;1.40;;;7.90;77.30;;;;;;4902319;29;20036;-83
2023/03/06 10:41:26;;;;;;;1.50;1.40;;;7.90;77.30;;;;;;4902265;29;20036;-81
2023/03/06 10:44:04;;;;;;;1.40;1.30;;;8.00;77.30;;;;;;4901974;29;20032;-81
2023/03/06 10:46:43;;;;;;;1.58;1.48;;;8.00;77.30;;;;;;4917482;29;20084;-81
2023/03/06 10:49:29;;;;;;;1.77;1.58;;;8.10;77.90;;;;;;4901890;29;20076;-81
2023/03/06 10:52:05;;;;;;;1.20;1.20;;;8.20;77.30;;;;;;4902134;29;20123;-83
2023/03/06 10:54:36;;;;;;;1.50;1.40;;;8.20;77.30;;;;;;4901938;29;20154;-81
2023/03/06 10:57:31;;;;;;;1.40;1.30;;;8.30;77.30;;;;;;4901854;29;20036;-82
2023/03/06 10:59:59;;;;;;;1.27;1.20;;;8.30;77.30;;;;;;4901754;29;20036;-82
2023/03/06 11:02:27;;;;;;;1.20;1.17;;;8.40;77.20;;;;;;4918249;29;20028;-82
2023/03/06 11:04:54;;;;;;;1.15;1.13;;;8.50;77.20;;;;;;4901590;29;20059;-81
2023/03/06 11:07:25;;;;;;;1.35;1.25;;;8.50;77.10;;;;;;4916483;29;20059;-82
2023/03/06 11:09:57;;;;;;;1.40;1.30;;;8.60;77.20;;;;;;4917210;29;20540;-82
2023/03/06 11:12:38;;;;;;;1.23;1.20;;;8.60;77.10;;;;;;4932874;29;20056;-83
2023/03/06 11:15:23;;;;;;;1.17;1.10;;;8.70;77.20;;;;;;4903215;29;20118;-82
2023/03/06 11:17:49;;;;;;;;;;;8.70;77.10;;;;;;4901931;29;20036;-84
2023/03/06 11:20:14;;;;;;;1.17;1.17;;;8.80;77.00;;;;;;4917283;29;20272;-81
2023/03/06 11:22:44;;;;;;;1.42;1.33;;;8.80;76.90;;;;;;4932937;29;20119;-84
2023/03/06 11:25:13;;;;;;;1.30;1.30;;;8.90;77.00;;;;;;4917296;29;20028;-82
2023/03/06 11:27:44;;;;;;;1.25;1.15;;;8.90;77.00;;;;;;4901083;29;20028;-81
2023/03/06 11:30:22;;;;;;;1.63;1.30;;;9.00;77.10;;;;;;4901611;29;20024;-81
2023/03/06 11:32:57;;;;;;;1.05;1.05;;;9.00;77.10;;;;;;4901392;29;20104;-82
2023/03/06 11:35:34;;;;;;;1.30;1.20;;;9.10;77.10;;;;;;4901255;29;20059;-81
2023/03/06 11:38:24;;;;;;;1.30;1.15;;;9.10;77.00;;;;;;4901478;29;20058;-81
2023/03/06 11:40:57;;;;;;;1.10;1.10;;;9.20;77.00;;;;;;4932973;29;20043;-81
2023/03/06 11:43:29;;;;;;;1.40;1.30;;;9.30;77.10;;;;;;4901453;29;20042;-81
2023/03/06 11:46:23;;;;;;;1.30;1.20;;;9.30;77.10;;;;;;4933124;29;20092;-81
2023/03/06 11:49:00;;;;;;;1.10;1.10;;;9.30;77.20;;;;;;4901045;29;20043;-80
2023/03/06 11:51:30;;;;;;;1.30;1.20;;;9.40;77.20;;;;;;4885527;29;20548;-81
2023/03/06 11:53:58;;;;;;;1.20;1.10;;;9.40;77.20;;;;;;4901077;29;20116;-82
2023/03/06 11:56:46;;;;;;;1.52;1.42;;;9.50;77.30;;;;;;4916893;29;20024;-82
2023/03/06 11:59:31;;;;;;;1.13;1.10;;;9.50;77.30;;;;;;4899253;29;20143;-81
2023/03/06 12:02:03;;;;;;;;;;;9.50;77.20;;;;;;4901323;29;20043;-80
2023/03/06 12:04:40;;;;;;;1.20;1.10;;;9.60;77.10;;;;;;4900896;29;19979;-82
2023/03/06 12:07:22;;;;;;;1.40;1.30;;;9.70;77.20;;;;;;4932831;29;20036;-82
2023/03/06 12:10:04;;;;;;;1.30;1.20;;;9.70;77.30;;;;;;4932391;29;20384;-81
2023/03/06 12:12:44;;;;;;;1.10;1.10;;;9.70;77.30;;;;;;4884934;29;20040;-79
2023/03/06 12:15:31;;;;;;;1.08;1.05;;;9.70;77.30;;;;;;4900815;29;20031;-80
2023/03/06 12:17:57;;;;;;;1.10;1.10;;;9.80;77.30;;;;;;4917672;29;20035;-80
2023/03/06 12:20:49;;;;;;;1.40;1.30;;;9.80;77.30;;;;;;4935965;29;20025;-81
2023/03/06 12:23:21;;;;;;;1.10;1.10;;;9.90;77.40;;;;;;4936561;29;20055;-82
2023/03/06 12:26:11;;;;;;;1.20;1.10;;;10.00;77.50;;;;;;4936199;29;20032;-82
2023/03/06 12:29:09;;;;;;;1.15;1.15;;;10.00;77.60;;;;;;4920943;29;20473;-82
2023/03/06 12:31:44;;;;;;;1.20;1.20;;;10.00;77.60;;;;;;4904669;29;20119;-84
2023/03/06 12:34:38;;;;;;;1.13;1.13;;;10.10;77.50;;;;;;4936740;29;20414;-81
2023/03/06 12:37:43;;;;;;;1.10;1.10;;;10.10;77.50;;;;;;4936056;29;20048;-82
2023/03/06 12:40:20;;;;;;;1.75;1.50;;;10.20;77.70;;;;;;4922146;29;20476;-83
2023/03/06 12:43:09;;;;;;;1.10;1.10;;;10.20;77.50;;;;;;4905807;29;20054;-83
2023/03/06 12:45:36;;;;;;;1.30;1.20;;;10.20;77.60;;;;;;4936448;29;20179;-82
2023/03/06 12:48:03;;;;;;;1.10;1.10;;;10.30;77.60;;;;;;4905261;29;20032;-82
2023/03/06 12:50:35;;;;;;;1.10;1.10;;;10.30;77.60;;;;;;4905205;29;20039;-83
2023/03/06 12:53:10;;;;;;;1.15;1.13;;;10.40;77.70;;;;;;4890000;29;20051;-81
2023/03/06 12:55:40;;;;;;;1.10;1.10;;;10.40;77.70;;;;;;4905170;29;20036;-82
2023/03/06 12:58:28;;;;;;;1.33;1.10;;;10.50;77.70;;;;;;4904706;29;20028;-82
2023/03/06 13:01:07;;;;;;;1.00;1.00;;;10.50;77.80;;;;;;4920740;29;20463;-82
2023/03/06 13:04:17;;;;;;;1.10;1.10;;;10.50;77.60;;;;;;4937577;29;20087;-82
2023/03/06 13:07:21;;;;;;;1.23;1.13;;;10.50;77.70;;;;;;4920745;29;20472;-82
2023/03/06 13:10:08;;;;;;;1.30;1.20;;;10.60;77.70;;;;;;4920634;29;20028;-81
2023/03/06 13:12:54;;;;;;;1.00;1.00;;;10.60;77.70;;;;;;4935207;29;20048;-83